首页
METAR-TAF:

METAR-TAF

机场 :

Pond Inlet, 努那武特, 加拿大

纬度: 72-42N, 经度: 077-58W, 海拔: 59米

当前天气观测

该预报发布于1小时和3分钟前的10:00 UTC
风速4节,风向西南
温度 3°C
湿度 93%
气压 1008 hPa
能見度: 14.5公里
阴天层高于6600英尺

METAR: CYIO 191000Z AUTO 22004KT 9SM OVC066 03/02 A2976 RMK SLP084

时间: 07:03 (11:03 UTC)

预报

该预报发布于4小时和23分钟前的06:40 UTC
预报有效从19日的 07点(UTC)到 19日的 19点(UTC)
风速3节,风向多变
能見度: 10公里
多云层高于6000英尺
阴天层高于10000英尺
短暂存在
从 19日的 07点(UTC)到 19日的 19点(UTC)
散云层高于6000英尺
多云层高于10000英尺

TAF: CYIO 190640Z 1907/1919 VRB03KT P6SM BKN060 OVC100 TEMPO 1907/1919 SCT060 BKN100 RMK FCST BASED ON AUTO OBS. NXT FCST BY 191300Z

超过4000个机场的气象观测和天气预报(METAR&TAF报告)。

可查询的气象台以黄色和红色小点在地图上表示。

将鼠标移到小点上方,可查看气象台名称。

然后点击查看天气观测和预报。

如需切换地图:点击带黑十字的绿色按钮放大地图;点击带横线的绿色按钮缩小地图;或者点击绿色箭头查看邻近地区的地图。


METAR-TAF: